Time;durP1;ratioP1;P1;durP2;ratioP2;P2;SDS_P1;SDS_P2;PMS_P1;PMS_P2;Temp;Humidity;BMP_temperature;BMP_pressure;BME280_temperature;BME280_humidity;BME280_pressure;Samples;Min_cycle;Max_cycle;Signal;HPM_P1;HPM_P2
2022/10/12 00:01:02;;;;;;;4.55;1.45;;;10.10;73.10;;;;;;5007203;28;20014;-67
2022/10/12 00:03:28;;;;;;;3.35;1.38;;;10.10;73.10;;;;;;5010045;28;20022;-67
2022/10/12 00:06:01;;;;;;;4.80;1.85;;;10.20;73.00;;;;;;5008999;28;20026;-67
2022/10/12 00:08:27;;;;;;;3.58;1.48;;;10.20;72.90;;;;;;5009000;28;20415;-67
2022/10/12 00:10:53;;;;;;;4.13;2.00;;;10.10;72.90;;;;;;5009965;28;20030;-68
2022/10/12 00:13:19;;;;;;;3.67;1.58;;;10.10;73.10;;;;;;5009152;28;20033;-68
2022/10/12 00:15:44;;;;;;;3.42;1.50;;;10.00;73.30;;;;;;5009258;28;20097;-67
2022/10/12 00:18:10;;;;;;;4.53;1.33;;;10.10;73.20;;;;;;5009517;28;20105;-67
2022/10/12 00:20:35;;;;;;;4.22;1.48;;;10.10;73.20;;;;;;5008913;28;20030;-66
2022/10/12 00:23:01;;;;;;;3.72;1.70;;;10.10;73.20;;;;;;5009461;28;20523;-66
2022/10/12 00:25:26;;;;;;;4.30;1.42;;;10.10;73.10;;;;;;5009376;28;20022;-67
2022/10/12 00:27:52;;;;;;;4.65;1.70;;;10.20;73.20;;;;;;5009327;28;20026;-67
2022/10/12 00:30:17;;;;;;;4.47;1.27;;;10.20;73.20;;;;;;5009403;28;20041;-68
2022/10/12 00:32:43;;;;;;;3.33;1.50;;;10.10;73.10;;;;;;5009181;28;20022;-69
2022/10/12 00:35:08;;;;;;;4.70;1.73;;;10.10;73.20;;;;;;5009299;28;20124;-68
2022/10/12 00:37:34;;;;;;;4.13;1.55;;;10.10;73.30;;;;;;5008920;28;20029;-68
2022/10/12 00:40:00;;;;;;;3.90;1.50;;;10.20;73.20;;;;;;5009536;28;20022;-68
2022/10/12 00:42:25;;;;;;;5.20;1.50;;;10.10;73.10;;;;;;5009579;28;20480;-68
2022/10/12 00:44:51;;;;;;;4.38;1.60;;;10.10;73.20;;;;;;5008867;28;20036;-67
2022/10/12 00:47:22;;;;;;;5.10;1.48;;;10.10;73.20;;;;;;5009139;28;20057;-66
2022/10/12 00:50:02;;;;;;;3.25;1.50;;;10.10;73.10;;;;;;5007919;28;20025;-67
2022/10/12 00:52:38;;;;;;;3.15;1.33;;;10.10;73.00;;;;;;5007220;28;20417;-67
2022/10/12 00:55:06;;;;;;;4.07;1.60;;;10.10;73.30;;;;;;5007522;28;20018;-67
2022/10/12 00:57:32;;;;;;;3.55;1.48;;;10.10;73.40;;;;;;5007304;28;20120;-67
2022/10/12 01:00:03;;;;;;;4.43;1.65;;;10.00;73.30;;;;;;5009275;28;20022;-67
2022/10/12 01:02:31;;;;;;;3.58;1.50;;;10.00;73.30;;;;;;5008539;28;20919;-67
2022/10/12 01:04:58;;;;;;;5.32;1.60;;;10.10;73.30;;;;;;5009531;28;20545;-67
2022/10/12 01:07:23;;;;;;;4.15;1.50;;;10.00;73.20;;;;;;5007764;28;20492;-69
2022/10/12 01:09:49;;;;;;;4.68;1.60;;;10.00;73.20;;;;;;5012087;28;20029;-68
2022/10/12 01:12:16;;;;;;;3.38;1.63;;;9.90;73.20;;;;;;5012203;28;20021;-69
2022/10/12 01:14:41;;;;;;;5.07;1.60;;;9.90;73.30;;;;;;5009764;28;20022;-69
2022/10/12 01:17:23;;;;;;;6.07;1.58;;;9.90;73.40;;;;;;5011146;28;20030;-69
2022/10/12 01:19:59;;;;;;;;;;;9.90;73.50;;;;;;5010369;28;20120;-69
2022/10/12 01:22:25;;;;;;;4.43;1.30;;;9.90;73.40;;;;;;5009941;28;20303;-69
2022/10/12 01:25:06;;;;;;;4.15;1.20;;;9.80;73.70;;;;;;5012662;28;20030;-68
2022/10/12 01:27:40;;;;;;;3.00;1.42;;;9.70;73.80;;;;;;5009605;28;20029;-68
2022/10/12 01:30:07;;;;;;;4.93;1.60;;;9.70;73.80;;;;;;5011305;28;20192;-68
2022/10/12 01:32:32;;;;;;;2.97;1.30;;;9.70;73.80;;;;;;5008752;28;20054;-67
2022/10/12 01:35:13;;;;;;;4.40;1.67;;;9.70;73.70;;;;;;5015191;28;20088;-68
2022/10/12 01:37:52;;;;;;;4.40;1.70;;;9.70;73.70;;;;;;5011594;28;20029;-67
2022/10/12 01:40:39;;;;;;;5.03;1.77;;;9.70;73.80;;;;;;5009686;28;20025;-67
2022/10/12 01:43:06;;;;;;;4.53;1.63;;;9.70;73.80;;;;;;5008614;28;20026;-69
2022/10/12 01:45:31;;;;;;;4.70;1.67;;;9.70;73.80;;;;;;5012195;28;20030;-68
2022/10/12 01:47:57;;;;;;;4.28;1.50;;;9.70;73.60;;;;;;5011682;28;20500;-68
2022/10/12 01:50:33;;;;;;;4.97;1.73;;;9.70;73.70;;;;;;5012110;28;20105;-69
2022/10/12 01:53:18;;;;;;;5.25;1.70;;;9.70;74.00;;;;;;5012047;28;20022;-69
2022/10/12 01:56:00;;;;;;;5.05;1.60;;;9.80;74.00;;;;;;5011601;28;20053;-69
2022/10/12 01:58:52;;;;;;;5.57;1.85;;;9.70;73.80;;;;;;5010139;28;20021;-69
2022/10/12 02:01:43;;;;;;;6.28;1.42;;;9.70;74.10;;;;;;5009750;28;20026;-69
2022/10/12 02:04:33;;;;;;;5.55;1.58;;;9.70;74.00;;;;;;4999936;28;20100;-68
2022/10/12 02:07:08;;;;;;;2.53;1.50;;;9.70;74.10;;;;;;5008157;28;20022;-67
2022/10/12 02:09:35;;;;;;;5.43;1.58;;;9.70;74.00;;;;;;5011495;28;20115;-69
2022/10/12 02:12:20;;;;;;;3.65;1.40;;;9.60;74.10;;;;;;5011701;28;20057;-68
2022/10/12 02:14:51;;;;;;;5.43;1.65;;;9.60;74.20;;;;;;5007891;28;20032;-69
2022/10/12 02:17:18;;;;;;;4.15;1.55;;;9.60;74.20;;;;;;5011453;28;20443;-68
2022/10/12 02:19:49;;;;;;;4.20;1.45;;;9.60;74.40;;;;;;5010566;28;20033;-67
2022/10/12 02:22:16;;;;;;;4.40;1.55;;;9.70;74.40;;;;;;5010515;28;20026;-68
2022/10/12 02:24:44;;;;;;;5.25;1.50;;;9.60;74.30;;;;;;5011635;28;20052;-67
2022/10/12 02:27:12;;;;;;;3.90;1.92;;;9.60;74.30;;;;;;5011157;28;20058;-68
2022/10/12 02:29:41;;;;;;;4.97;1.38;;;9.60;74.20;;;;;;5011405;28;20037;-69
2022/10/12 02:32:22;;;;;;;3.17;1.30;;;9.60;74.30;;;;;;5011554;28;20029;-69
2022/10/12 02:34:52;;;;;;;4.03;1.52;;;9.60;74.50;;;;;;5009434;28;20107;-68
2022/10/12 02:37:36;;;;;;;4.43;1.45;;;9.60;74.40;;;;;;5011433;28;20422;-69
2022/10/12 02:40:30;;;;;;;5.30;1.80;;;9.60;74.50;;;;;;5010662;28;20053;-68
2022/10/12 02:43:09;;;;;;;5.07;1.67;;;9.50;74.40;;;;;;5010518;28;20092;-68
2022/10/12 02:45:37;;;;;;;4.38;1.65;;;9.50;74.50;;;;;;5009562;28;20049;-68
2022/10/12 02:48:05;;;;;;;4.15;1.35;;;9.50;74.40;;;;;;5011123;28;20018;-67
2022/10/12 02:50:31;;;;;;;5.28;1.48;;;9.50;74.40;;;;;;5009904;28;20026;-68
2022/10/12 02:52:58;;;;;;;3.63;1.35;;;9.50;74.60;;;;;;5009774;28;20018;-68
2022/10/12 02:55:23;;;;;;;4.95;1.48;;;9.50;74.60;;;;;;5010849;28;20076;-68
2022/10/12 02:57:49;;;;;;;2.65;1.20;;;9.50;74.70;;;;;;5010415;28;20034;-68
2022/10/12 03:00:15;;;;;;;4.32;1.52;;;9.50;74.60;;;;;;5010605;28;20511;-68
2022/10/12 03:02:41;;;;;;;3.10;1.30;;;9.50;74.70;;;;;;5007097;28;20033;-68
2022/10/12 03:05:06;;;;;;;3.85;1.50;;;9.50;74.60;;;;;;5010339;28;20030;-69
2022/10/12 03:07:32;;;;;;;3.45;1.35;;;9.50;74.60;;;;;;5010846;28;20022;-68
2022/10/12 03:09:57;;;;;;;4.63;1.30;;;9.50;74.70;;;;;;5010278;28;20384;-68
2022/10/12 03:12:23;;;;;;;5.00;1.70;;;9.50;74.70;;;;;;5010594;28;20033;-69
2022/10/12 03:14:48;;;;;;;4.70;1.52;;;9.50;74.60;;;;;;5010507;28;20432;-68
2022/10/12 03:17:14;;;;;;;5.22;1.50;;;9.60;74.50;;;;;;5009096;28;20030;-68
2022/10/12 03:19:39;;;;;;;4.53;1.55;;;9.50;74.60;;;;;;5009922;28;20045;-68
2022/10/12 03:22:05;;;;;;;5.10;2.00;;;9.40;74.70;;;;;;5010479;28;20018;-68
2022/10/12 03:24:30;;;;;;;4.35;1.65;;;9.50;74.70;;;;;;5010113;28;20033;-69
2022/10/12 03:26:56;;;;;;;3.53;1.60;;;9.50;74.60;;;;;;5008992;28;20471;-68
2022/10/12 03:29:22;;;;;;;3.70;1.52;;;9.50;74.50;;;;;;5010024;28;20049;-66
2022/10/12 03:31:47;;;;;;;3.92;1.58;;;9.50;74.30;;;;;;5007711;28;20492;-66
2022/10/12 03:34:13;;;;;;;6.18;2.00;;;9.40;74.40;;;;;;5014822;28;20026;-68
2022/10/12 03:36:38;;;;;;;6.93;1.77;;;9.40;74.60;;;;;;5010128;28;20033;-69
2022/10/12 03:39:04;;;;;;;5.82;1.98;;;9.40;74.50;;;;;;5009893;28;20041;-69
2022/10/12 03:41:29;;;;;;;3.55;1.60;;;9.40;74.40;;;;;;5009673;28;20014;-68
2022/10/12 03:43:55;;;;;;;4.85;1.92;;;9.40;74.40;;;;;;5010348;28;20372;-70
2022/10/12 03:46:20;;;;;;;5.75;1.65;;;9.30;74.40;;;;;;5009752;28;20029;-70
2022/10/12 03:48:46;;;;;;;5.03;1.85;;;9.30;75.10;;;;;;5008920;28;20113;-70
2022/10/12 03:51:11;;;;;;;4.78;1.60;;;9.30;74.50;;;;;;5008586;28;20030;-69
2022/10/12 03:53:37;;;;;;;6.32;1.70;;;9.20;74.60;;;;;;5009712;28;20025;-68
2022/10/12 03:56:03;;;;;;;4.00;1.70;;;9.20;74.60;;;;;;5010579;28;20026;-69
2022/10/12 03:58:28;;;;;;;3.80;1.70;;;9.30;74.60;;;;;;5009765;28;20045;-68
2022/10/12 04:00:54;;;;;;;5.40;2.03;;;9.30;74.60;;;;;;5009875;28;20361;-68
2022/10/12 04:03:20;;;;;;;3.95;1.90;;;9.30;74.60;;;;;;5009938;28;20053;-68
2022/10/12 04:05:56;;;;;;;5.93;1.80;;;9.20;74.60;;;;;;5009673;28;20116;-68
2022/10/12 04:08:23;;;;;;;3.65;1.73;;;9.20;74.60;;;;;;5009779;28;20088;-68
2022/10/12 04:10:51;;;;;;;4.90;2.10;;;9.20;74.70;;;;;;5009539;28;20484;-69
2022/10/12 04:13:18;;;;;;;3.90;2.00;;;9.10;74.70;;;;;;5009702;28;20032;-69
2022/10/12 04:15:44;;;;;;;5.32;2.30;;;9.10;74.70;;;;;;5009582;28;20050;-68
2022/10/12 04:18:09;;;;;;;4.75;2.13;;;9.10;74.70;;;;;;5009218;28;20551;-68
2022/10/12 04:20:35;;;;;;;7.15;2.60;;;9.10;74.70;;;;;;5006898;28;20026;-66
2022/10/12 04:23:01;;;;;;;7.10;2.50;;;9.10;74.70;;;;;;5009432;28;20053;-67
2022/10/12 04:25:26;;;;;;;4.40;2.20;;;9.00;74.70;;;;;;5009277;28;20080;-67
2022/10/12 04:27:52;;;;;;;9.07;2.40;;;9.00;74.90;;;;;;5009083;28;20520;-68
2022/10/12 04:30:17;;;;;;;4.05;2.10;;;9.00;74.90;;;;;;5009306;28;20493;-68
2022/10/12 04:32:43;;;;;;;3.45;2.13;;;8.90;75.00;;;;;;5009753;28;20061;-68
2022/10/12 04:35:09;;;;;;;6.15;2.30;;;8.80;75.30;;;;;;5007620;28;20489;-67
2022/10/12 04:37:34;;;;;;;4.32;2.00;;;8.80;75.40;;;;;;5009634;28;20118;-69
2022/10/12 04:40:00;;;;;;;4.97;2.33;;;8.80;75.40;;;;;;5009636;28;20105;-68
2022/10/12 04:42:26;;;;;;;5.78;2.17;;;8.70;75.30;;;;;;5009778;28;20453;-68
2022/10/12 04:44:51;;;;;;;5.18;2.15;;;8.70;75.50;;;;;;5012876;28;20160;-69
2022/10/12 04:47:17;;;;;;;5.85;2.10;;;8.70;75.50;;;;;;5012331;28;20375;-68
2022/10/12 04:49:42;;;;;;;7.22;2.75;;;8.70;75.50;;;;;;5013192;28;20117;-67
2022/10/12 04:52:08;;;;;;;4.88;2.30;;;8.60;75.50;;;;;;5012659;28;20022;-68
2022/10/12 04:54:34;;;;;;;6.20;2.53;;;8.60;75.40;;;;;;5011377;28;20030;-67
2022/10/12 04:56:59;;;;;;;5.72;2.83;;;8.60;75.30;;;;;;5011069;28;20543;-69
2022/10/12 04:59:25;;;;;;;7.03;2.80;;;8.60;75.40;;;;;;5009446;28;20504;-69
2022/10/12 05:01:50;;;;;;;5.60;2.92;;;8.60;75.20;;;;;;5012282;28;20030;-68
2022/10/12 05:04:16;;;;;;;6.15;3.10;;;8.60;75.30;;;;;;5012855;28;20033;-69
2022/10/12 05:06:42;;;;;;;9.32;3.20;;;8.60;75.40;;;;;;5011774;28;20045;-69
2022/10/12 05:09:07;;;;;;;6.05;3.60;;;8.60;75.30;;;;;;5012895;28;20029;-67
2022/10/12 05:11:33;;;;;;;5.50;3.28;;;8.60;75.20;;;;;;5006664;28;20026;-68
2022/10/12 05:13:58;;;;;;;6.43;2.90;;;8.60;75.10;;;;;;5014707;28;20531;-68
2022/10/12 05:16:24;;;;;;;6.13;3.15;;;8.50;75.10;;;;;;5005100;28;20081;-68
2022/10/12 05:18:50;;;;;;;7.78;3.40;;;8.50;75.20;;;;;;5008608;28;20030;-68
2022/10/12 05:21:16;;;;;;;5.80;3.30;;;8.50;75.30;;;;;;5007750;28;20135;-68
2022/10/12 05:23:41;;;;;;;7.63;3.47;;;8.50;75.30;;;;;;5007932;28;20026;-66
2022/10/12 05:26:07;;;;;;;9.10;4.68;;;8.50;75.20;;;;;;5009680;28;20034;-69
2022/10/12 05:28:35;;;;;;;6.75;3.92;;;8.40;75.20;;;;;;5008507;28;20053;-68
2022/10/12 05:31:01;;;;;;;7.35;3.53;;;8.50;75.40;;;;;;5001872;28;20053;-68
2022/10/12 05:33:26;;;;;;;7.05;3.75;;;8.40;75.30;;;;;;5007658;28;20054;-67
2022/10/12 05:35:52;;;;;;;6.45;3.63;;;8.40;75.30;;;;;;5008387;28;20033;-68
2022/10/12 05:38:18;;;;;;;7.93;4.00;;;8.40;75.30;;;;;;5010570;28;20153;-68
2022/10/12 05:40:43;;;;;;;7.70;3.65;;;8.40;75.30;;;;;;5009869;28;20018;-69
2022/10/12 05:43:09;;;;;;;8.02;3.63;;;8.40;75.30;;;;;;5005908;28;20037;-68
2022/10/12 05:45:34;;;;;;;8.43;4.20;;;8.50;75.40;;;;;;5010809;28;20171;-68
2022/10/12 05:48:00;;;;;;;7.15;4.05;;;8.50;75.50;;;;;;5008684;28;20025;-68
2022/10/12 05:50:25;;;;;;;7.22;4.07;;;8.50;75.50;;;;;;5007471;28;20030;-68
2022/10/12 05:52:51;;;;;;;7.88;4.18;;;8.50;75.60;;;;;;5008258;28;20057;-68
2022/10/12 05:55:16;;;;;;;7.63;4.32;;;8.50;75.60;;;;;;5008508;28;20042;-68
2022/10/12 05:57:42;;;;;;;7.38;4.25;;;8.60;75.50;;;;;;5008145;28;20042;-68
2022/10/12 06:00:08;;;;;;;5.28;3.85;;;8.60;75.50;;;;;;5006119;28;20022;-68
2022/10/12 06:02:34;;;;;;;6.25;4.18;;;8.70;75.50;;;;;;5007983;28;20578;-69
2022/10/12 06:05:00;;;;;;;9.23;4.13;;;8.70;75.40;;;;;;5003779;28;20023;-68
2022/10/12 06:07:26;;;;;;;8.18;4.03;;;8.70;75.20;;;;;;5007897;28;20081;-68
2022/10/12 06:09:52;;;;;;;7.80;4.00;;;8.80;75.40;;;;;;5008940;28;20033;-68
2022/10/12 06:12:17;;;;;;;7.13;4.18;;;8.80;75.30;;;;;;5010200;28;20484;-68
2022/10/12 06:14:43;;;;;;;7.88;4.18;;;8.80;75.20;;;;;;5005029;28;20032;-68
2022/10/12 06:17:08;;;;;;;7.13;3.80;;;8.80;75.30;;;;;;5009822;28;20073;-68
2022/10/12 06:19:35;;;;;;;8.15;4.22;;;8.90;75.30;;;;;;5011664;28;20467;-69
2022/10/12 06:22:01;;;;;;;9.13;4.57;;;8.90;75.30;;;;;;5011810;28;20033;-69
2022/10/12 06:24:26;;;;;;;7.18;4.32;;;9.00;75.30;;;;;;5011998;28;20018;-67
2022/10/12 06:26:52;;;;;;;8.18;4.35;;;9.10;75.20;;;;;;5012183;28;20081;-68
2022/10/12 06:29:17;;;;;;;6.60;4.15;;;9.20;75.10;;;;;;5011502;28;20026;-68
2022/10/12 06:31:43;;;;;;;7.72;4.30;;;9.30;75.00;;;;;;5011757;28;20036;-68
2022/10/12 06:34:09;;;;;;;6.03;3.92;;;9.30;74.90;;;;;;5011784;28;20049;-68
2022/10/12 06:36:34;;;;;;;8.35;4.38;;;9.40;74.90;;;;;;5011451;28;20169;-68
2022/10/12 06:39:00;;;;;;;7.43;4.28;;;9.50;75.00;;;;;;5011681;28;20029;-68
2022/10/12 06:41:25;;;;;;;6.00;4.03;;;9.50;74.80;;;;;;5011765;28;20034;-69
2022/10/12 06:43:51;;;;;;;8.38;4.43;;;9.60;74.70;;;;;;5011755;28;20029;-69
2022/10/12 06:46:16;;;;;;;10.23;4.07;;;9.70;74.70;;;;;;5011198;28;20033;-69
2022/10/12 06:48:42;;;;;;;7.20;4.38;;;9.70;74.60;;;;;;5011113;28;20104;-69
2022/10/12 06:51:07;;;;;;;9.88;4.95;;;9.80;74.60;;;;;;5011595;28;20097;-69
2022/10/12 06:53:33;;;;;;;7.25;4.20;;;9.80;74.50;;;;;;5011506;28;20387;-68
2022/10/12 06:56:04;;;;;;;7.85;4.68;;;9.80;74.50;;;;;;5011458;28;20014;-66
2022/10/12 06:58:29;;;;;;;8.40;4.28;;;9.90;74.60;;;;;;5011494;28;20034;-67
2022/10/12 07:00:55;;;;;;;8.98;5.30;;;9.90;74.60;;;;;;5011325;28;20018;-68
2022/10/12 07:03:20;;;;;;;8.73;5.15;;;9.90;74.60;;;;;;5011136;28;20276;-67
2022/10/12 07:05:46;;;;;;;9.40;5.13;;;9.90;74.70;;;;;;5009209;28;20446;-68
2022/10/12 07:08:11;;;;;;;8.73;5.10;;;9.90;74.70;;;;;;5009800;28;20025;-67
2022/10/12 07:10:37;;;;;;;10.30;5.32;;;10.00;74.70;;;;;;5011116;28;20152;-67
2022/10/12 07:13:03;;;;;;;8.18;5.45;;;10.10;74.70;;;;;;5011154;28;20029;-68
2022/10/12 07:15:29;;;;;;;9.70;4.90;;;10.00;74.60;;;;;;5010602;28;20102;-67
2022/10/12 07:17:54;;;;;;;8.07;4.85;;;10.10;74.70;;;;;;5010906;28;20488;-67
2022/10/12 07:20:20;;;;;;;7.55;4.65;;;10.10;74.70;;;;;;5010945;28;20033;-67
2022/10/12 07:22:46;;;;;;;7.03;4.60;;;10.10;74.70;;;;;;5011098;28;20101;-67
2022/10/12 07:25:12;;;;;;;8.30;4.78;;;10.20;74.70;;;;;;5005806;28;20527;-67
2022/10/12 07:27:37;;;;;;;8.55;5.68;;;10.20;74.60;;;;;;5010443;28;20041;-68
2022/10/12 07:30:04;;;;;;;10.57;6.35;;;10.20;74.70;;;;;;5010794;28;20018;-67
2022/10/12 07:32:29;;;;;;;8.50;5.50;;;10.30;74.70;;;;;;5010612;28;20104;-68
2022/10/12 07:34:55;;;;;;;11.77;6.18;;;10.30;74.80;;;;;;5010517;28;20153;-68
2022/10/12 07:37:20;;;;;;;8.73;5.32;;;10.30;75.00;;;;;;5003587;28;20030;-68
2022/10/12 07:39:46;;;;;;;7.35;4.45;;;10.30;74.90;;;;;;5005251;28;20029;-66
2022/10/12 07:42:12;;;;;;;11.07;6.03;;;10.40;74.80;;;;;;5010537;28;20495;-68
2022/10/12 07:44:37;;;;;;;8.57;5.70;;;10.50;74.70;;;;;;5010427;28;20088;-68
2022/10/12 07:47:03;;;;;;;9.40;5.75;;;10.50;74.80;;;;;;5010101;28;20030;-67
2022/10/12 07:49:28;;;;;;;7.13;4.78;;;10.40;75.00;;;;;;5010711;28;20520;-67
2022/10/12 07:51:54;;;;;;;9.02;5.22;;;10.40;75.20;;;;;;5009838;28;20065;-67
2022/10/12 07:54:20;;;;;;;11.50;6.25;;;10.30;75.30;;;;;;5009174;28;20038;-67
2022/10/12 07:56:46;;;;;;;12.82;6.20;;;10.20;76.10;;;;;;5009854;28;20456;-67
2022/10/12 07:59:11;;;;;;;10.90;5.65;;;10.10;75.70;;;;;;5008400;28;20030;-67
2022/10/12 08:01:37;;;;;;;9.65;6.18;;;10.10;75.80;;;;;;5009278;28;20026;-68
2022/10/12 08:04:03;;;;;;;11.43;5.90;;;10.10;75.90;;;;;;5013568;28;20146;-68
2022/10/12 08:06:30;;;;;;;8.20;5.40;;;10.00;76.10;;;;;;5007983;28;20051;-68
2022/10/12 08:08:58;;;;;;;9.30;6.70;;;10.00;76.20;;;;;;5001384;28;20030;-68
2022/10/12 08:11:23;;;;;;;12.60;7.40;;;10.00;76.50;;;;;;5001341;28;20564;-68
2022/10/12 08:13:49;;;;;;;7.97;5.63;;;10.00;76.50;;;;;;5006386;28;20101;-68
2022/10/12 08:16:18;;;;;;;10.13;6.65;;;10.10;76.70;;;;;;5006881;28;20026;-69
2022/10/12 08:18:44;;;;;;;7.75;5.25;;;10.20;76.60;;;;;;5004801;28;20110;-68
2022/10/12 08:21:12;;;;;;;7.22;4.78;;;10.30;76.40;;;;;;5009454;28;20093;-67
2022/10/12 08:23:38;;;;;;;9.13;5.53;;;10.40;76.20;;;;;;5007482;28;20018;-69
2022/10/12 08:26:05;;;;;;;13.40;8.40;;;10.50;75.90;;;;;;5000110;28;20042;-68
2022/10/12 08:28:31;;;;;;;15.23;8.40;;;10.60;76.00;;;;;;5009677;28;20066;-68
2022/10/12 08:30:57;;;;;;;15.27;8.27;;;10.70;76.00;;;;;;5003781;28;20150;-68
2022/10/12 08:33:22;;;;;;;14.40;8.23;;;10.80;76.10;;;;;;5007995;28;20069;-68
2022/10/12 08:35:48;;;;;;;17.98;9.63;;;10.90;75.90;;;;;;5009010;28;20034;-68
2022/10/12 08:38:15;;;;;;;13.13;8.02;;;10.90;75.80;;;;;;5006702;28;20427;-68
2022/10/12 08:40:55;;;;;;;16.25;9.63;;;11.00;76.00;;;;;;5005681;28;20022;-69
2022/10/12 08:43:45;;;;;;;16.27;10.27;;;11.10;75.80;;;;;;5017184;28;20026;-69
2022/10/12 08:46:10;;;;;;;16.75;8.95;;;11.10;75.60;;;;;;5003943;28;21640;-68
2022/10/12 08:48:39;;;;;;;14.18;7.95;;;11.20;75.40;;;;;;5009466;28;20040;-68
2022/10/12 08:51:09;;;;;;;12.73;7.38;;;11.30;75.40;;;;;;5013468;28;20022;-67
2022/10/12 08:53:53;;;;;;;9.48;5.85;;;11.40;75.00;;;;;;5003550;28;20034;-69
2022/10/12 08:56:20;;;;;;;9.05;5.85;;;11.50;74.80;;;;;;5006223;28;20026;-69
2022/10/12 08:58:47;;;;;;;10.27;6.32;;;11.60;74.60;;;;;;5005773;28;20053;-69
2022/10/12 09:01:44;;;;;;;16.13;7.80;;;11.70;74.30;;;;;;5008243;28;20030;-69
2022/10/12 09:04:28;;;;;;;12.40;7.45;;;11.70;74.10;;;;;;5018913;28;20026;-68
2022/10/12 09:07:19;;;;;;;16.25;10.02;;;11.80;74.00;;;;;;5001746;28;20503;-68
2022/10/12 09:10:15;;;;;;;13.15;7.75;;;11.70;73.90;;;;;;5003021;28;20416;-68
2022/10/12 09:13:05;;;;;;;14.35;8.30;;;11.80;74.10;;;;;;5002528;28;20053;-69
2022/10/12 09:15:36;;;;;;;8.73;6.25;;;11.80;74.00;;;;;;5003726;28;20459;-69
2022/10/12 09:18:24;;;;;;;16.58;8.60;;;12.00;73.90;;;;;;5003342;28;20030;-69
2022/10/12 09:20:51;;;;;;;15.60;9.15;;;12.00;73.90;;;;;;5000391;28;20517;-69
2022/10/12 09:23:24;;;;;;;11.35;6.72;;;12.10;73.80;;;;;;5010301;28;20026;-69
2022/10/12 09:25:52;;;;;;;10.55;6.75;;;12.10;73.70;;;;;;5007571;28;20026;-68
2022/10/12 09:28:25;;;;;;;12.43;6.78;;;12.30;73.60;;;;;;5013934;28;20427;-68
2022/10/12 09:31:05;;;;;;;10.82;7.47;;;12.40;73.30;;;;;;5006833;28;20038;-69
2022/10/12 09:33:38;;;;;;;14.02;7.97;;;12.40;73.00;;;;;;5008371;28;20030;-68
2022/10/12 09:36:04;;;;;;;16.80;9.10;;;12.50;72.70;;;;;;5008888;28;20075;-68
2022/10/12 09:38:30;;;;;;;15.57;9.23;;;12.40;72.40;;;;;;5008819;28;20508;-68
2022/10/12 09:40:55;;;;;;;16.15;9.10;;;12.40;72.50;;;;;;5004898;28;20066;-68
2022/10/12 09:43:21;;;;;;;14.38;7.70;;;12.40;72.60;;;;;;5008516;28;20029;-68
2022/10/12 09:45:47;;;;;;;10.45;7.03;;;12.40;72.50;;;;;;5013024;28;20018;-67
2022/10/12 09:48:18;;;;;;;13.05;7.93;;;12.60;72.50;;;;;;5021435;28;20101;-67
2022/10/12 09:50:44;;;;;;;12.38;7.20;;;12.70;72.20;;;;;;5010954;28;20033;-67
2022/10/12 09:53:34;;;;;;;10.48;6.70;;;12.70;71.60;;;;;;5012134;28;20034;-69
2022/10/12 09:56:07;;;;;;;8.55;5.45;;;12.80;71.40;;;;;;5024956;28;20686;-69
2022/10/12 09:58:42;;;;;;;14.00;7.32;;;12.90;71.10;;;;;;5011523;28;20033;-69
2022/10/12 10:01:32;;;;;;;10.30;6.07;;;13.00;70.40;;;;;;5011404;28;20118;-67
2022/10/12 10:04:16;;;;;;;12.80;6.70;;;13.10;70.30;;;;;;5009365;28;20038;-68
2022/10/12 10:06:45;;;;;;;13.43;7.75;;;13.10;70.10;;;;;;5005151;28;20029;-67
2022/10/12 10:09:34;;;;;;;12.45;7.10;;;13.20;69.90;;;;;;5017406;28;20034;-67
2022/10/12 10:12:12;;;;;;;11.85;6.38;;;13.20;69.20;;;;;;5007362;28;20727;-68
2022/10/12 10:14:41;;;;;;;15.18;7.65;;;13.20;68.80;;;;;;5007070;28;20054;-68
2022/10/12 10:17:06;;;;;;;11.43;6.82;;;13.30;68.80;;;;;;5007747;28;20030;-68
2022/10/12 10:19:32;;;;;;;14.45;7.72;;;13.30;68.70;;;;;;5009846;28;20041;-68
2022/10/12 10:22:04;;;;;;;14.32;7.47;;;13.30;68.50;;;;;;5006791;28;20021;-67
2022/10/12 10:24:31;;;;;;;10.02;6.60;;;13.30;68.10;;;;;;5006778;28;20040;-67
2022/10/12 10:27:02;;;;;;;9.20;5.82;;;13.40;68.50;;;;;;5006904;28;20025;-68
2022/10/12 10:29:42;;;;;;;15.38;7.63;;;13.50;68.60;;;;;;5003078;28;20029;-68
2022/10/12 10:32:23;;;;;;;14.75;7.13;;;13.50;68.50;;;;;;5008960;28;20112;-67
2022/10/12 10:34:59;;;;;;;13.10;8.15;;;13.50;68.50;;;;;;5007333;28;20025;-68
2022/10/12 10:37:24;;;;;;;12.00;6.95;;;13.50;68.30;;;;;;5003809;28;20033;-68
2022/10/12 10:39:53;;;;;;;9.73;5.57;;;13.60;68.50;;;;;;5008016;28;20026;-68
2022/10/12 10:42:38;;;;;;;11.88;6.53;;;13.70;68.50;;;;;;5009066;28;20624;-68
2022/10/12 10:45:07;;;;;;;14.05;7.30;;;13.80;68.30;;;;;;5006620;28;20153;-69
2022/10/12 10:47:41;;;;;;;11.70;7.00;;;13.80;67.90;;;;;;5004833;28;20026;-69
2022/10/12 10:50:26;;;;;;;10.57;6.40;;;13.80;67.90;;;;;;5008454;28;20022;-68
2022/10/12 10:52:57;;;;;;;12.98;8.25;;;13.90;67.90;;;;;;4999580;28;20438;-68
2022/10/12 10:55:40;;;;;;;16.83;9.10;;;14.00;67.70;;;;;;5005079;28;20034;-68
2022/10/12 10:58:20;;;;;;;14.98;8.90;;;14.10;67.60;;;;;;5006943;28;20370;-69
2022/10/12 11:00:47;;;;;;;16.00;9.35;;;14.10;67.40;;;;;;5009320;28;20076;-68
2022/10/12 11:03:17;;;;;;;16.13;9.10;;;14.20;67.20;;;;;;5015515;28;20028;-69
2022/10/12 11:05:50;;;;;;;11.30;6.78;;;14.20;67.20;;;;;;5007193;28;20026;-68
2022/10/12 11:08:22;;;;;;;12.32;7.65;;;14.30;67.50;;;;;;5007649;28;20436;-69
2022/10/12 11:11:08;;;;;;;13.35;9.13;;;14.40;67.60;;;;;;5009315;28;20092;-67
2022/10/12 11:13:40;;;;;;;15.73;9.32;;;14.40;67.50;;;;;;5009604;28;20026;-68
2022/10/12 11:16:27;;;;;;;16.38;10.02;;;14.50;67.50;;;;;;5007852;28;20025;-68
2022/10/12 11:19:01;;;;;;;14.07;9.80;;;14.50;67.40;;;;;;5009455;28;20030;-69
2022/10/12 11:21:44;;;;;;;15.50;8.93;;;14.50;67.60;;;;;;5007962;28;20384;-68
2022/10/12 11:24:17;;;;;;;16.95;10.85;;;14.50;67.60;;;;;;5008625;28;20026;-67
2022/10/12 11:26:46;;;;;;;15.38;9.32;;;14.60;67.70;;;;;;5008767;28;20079;-68
2022/10/12 11:29:13;;;;;;;13.88;8.70;;;14.70;67.70;;;;;;5009347;28;20029;-67
2022/10/12 11:31:48;;;;;;;14.30;7.65;;;14.90;67.40;;;;;;5008980;28;20408;-68
2022/10/12 11:34:17;;;;;;;13.15;7.32;;;15.10;67.10;;;;;;5009491;28;20022;-68
2022/10/12 11:36:48;;;;;;;14.02;8.57;;;15.30;66.60;;;;;;5008498;28;20029;-69
2022/10/12 11:39:18;;;;;;;14.65;9.10;;;15.30;64.90;;;;;;5007832;28;20032;-69
2022/10/12 11:41:52;;;;;;;14.30;7.80;;;15.30;64.50;;;;;;5008083;28;20148;-69
2022/10/12 11:44:27;;;;;;;17.55;8.60;;;15.20;64.70;;;;;;5005815;28;20025;-69
2022/10/12 11:47:29;;;;;;;14.93;6.85;;;15.30;64.20;;;;;;5007354;28;20026;-68
2022/10/12 11:50:17;;;;;;;11.82;6.65;;;15.50;63.70;;;;;;5008680;28;20041;-68
2022/10/12 11:52:45;;;;;;;13.85;7.68;;;15.50;63.70;;;;;;5006286;28;20026;-68
2022/10/12 11:55:39;;;;;;;13.15;7.55;;;15.60;63.20;;;;;;5009049;28;20017;-68
2022/10/12 11:58:16;;;;;;;12.20;6.47;;;15.80;62.90;;;;;;5005580;28;20034;-68
2022/10/12 12:01:12;;;;;;;13.00;7.60;;;16.00;62.30;;;;;;5008344;28;20117;-69
2022/10/12 12:04:16;;;;;;;16.13;9.10;;;15.90;61.90;;;;;;5008555;28;20499;-69
2022/10/12 12:06:48;;;;;;;13.23;7.45;;;15.80;62.30;;;;;;5006090;28;20030;-69
2022/10/12 12:09:40;;;;;;;12.60;7.63;;;16.00;62.40;;;;;;5006874;28;21594;-68
2022/10/12 12:12:28;;;;;;;8.90;5.60;;;16.00;62.30;;;;;;5004894;28;20034;-68
2022/10/12 12:14:53;;;;;;;14.98;8.75;;;16.20;62.30;;;;;;5005920;28;20026;-68
2022/10/12 12:17:23;;;;;;;13.15;7.85;;;16.10;61.50;;;;;;5008214;28;20045;-68
2022/10/12 12:20:12;;;;;;;12.98;7.78;;;16.10;61.60;;;;;;5008355;28;20527;-68
2022/10/12 12:22:53;;;;;;;13.50;7.20;;;16.30;61.70;;;;;;5006036;28;20120;-68
2022/10/12 12:25:30;;;;;;;19.08;9.10;;;16.30;61.50;;;;;;5008415;28;20032;-68
2022/10/12 12:28:17;;;;;;;12.18;7.25;;;16.40;61.00;;;;;;5006676;28;20233;-68
2022/10/12 12:31:08;;;;;;;12.90;7.55;;;16.50;60.70;;;;;;5003731;28;20018;-68
2022/10/12 12:33:40;;;;;;;12.80;6.95;;;16.50;60.80;;;;;;5003581;28;20447;-68
2022/10/12 12:36:09;;;;;;;18.60;9.93;;;16.60;60.90;;;;;;5006117;28;20022;-68
2022/10/12 12:38:46;;;;;;;15.13;9.52;;;16.60;60.30;;;;;;5007816;28;20113;-69
2022/10/12 12:41:17;;;;;;;15.93;8.27;;;16.70;60.00;;;;;;5006023;28;20112;-68
2022/10/12 12:43:54;;;;;;;12.70;7.38;;;16.60;60.30;;;;;;5005097;28;20029;-69
2022/10/12 12:46:21;;;;;;;11.10;7.03;;;16.60;60.30;;;;;;5008188;28;20080;-69
2022/10/12 12:48:47;;;;;;;11.95;7.78;;;16.60;60.30;;;;;;5006313;28;20038;-68
2022/10/12 12:51:25;;;;;;;15.65;8.25;;;16.50;60.10;;;;;;5006454;28;20033;-69
2022/10/12 12:54:12;;;;;;;10.95;6.22;;;16.40;60.20;;;;;;5007875;28;20054;-68
2022/10/12 12:56:49;;;;;;;11.80;5.30;;;16.30;60.60;;;;;;5007701;28;20026;-68
2022/10/12 12:59:37;;;;;;;10.68;5.13;;;16.30;60.70;;;;;;5007535;28;20544;-69
2022/10/12 13:02:28;;;;;;;7.47;4.10;;;16.40;60.80;;;;;;5005417;28;20053;-68
2022/10/12 13:05:15;;;;;;;11.02;5.22;;;16.50;60.60;;;;;;5010601;28;20472;-68